Time;durP1;ratioP1;P1;durP2;ratioP2;P2;SDS_P1;SDS_P2;PMS_P1;PMS_P2;Temp;Humidity;BMP_temperature;BMP_pressure;BME280_temperature;BME280_humidity;BME280_pressure;Samples;Min_cycle;Max_cycle;Signal;HPM_P1;HPM_P2
2023/02/27 00:01:32;;;;;;;;;7.25;5.00;;;;;4.45;42.10;101866.72;4999524;28;45484;-60
2023/02/27 00:03:57;;;;;;;;;6.50;5.00;;;;;4.43;42.33;101863.19;4986464;27;45504;-60
2023/02/27 00:06:23;;;;;;;;;6.50;6.50;;;;;4.42;42.70;101854.50;4998936;28;47142;-60
2023/02/27 00:08:48;;;;;;;;;7.00;6.00;;;;;4.39;42.51;101863.09;4998950;28;45279;-61
2023/02/27 00:11:14;;;;;;;;;5.00;3.75;;;;;4.37;42.77;101863.91;5014395;28;45271;-60
2023/02/27 00:13:39;;;;;;;;;6.50;6.50;;;;;4.34;42.36;101854.28;4999244;28;45372;-60
2023/02/27 00:16:06;;;;;;;;;7.50;5.50;;;;;4.33;42.19;101856.84;4998700;27;46344;-60
2023/02/27 00:18:31;;;;;;;;;6.00;5.00;;;;;4.28;42.37;101850.63;4999022;28;45490;-61
2023/02/27 00:20:56;;;;;;;;;6.00;4.00;;;;;4.25;42.93;101851.38;4998853;28;45278;-60
2023/02/27 00:23:21;;;;;;;;;4.25;3.50;;;;;4.28;42.73;101855.84;4998871;28;45299;-60
2023/02/27 00:25:47;;;;;;;;;5.50;5.50;;;;;4.28;42.69;101859.31;4998603;28;45961;-60
2023/02/27 00:28:12;;;;;;;;;5.00;3.50;;;;;4.26;42.70;101865.31;4999031;28;45341;-60
2023/02/27 00:30:38;;;;;;;;;7.00;7.00;;;;;4.25;42.75;101861.81;4998672;28;45379;-60
2023/02/27 00:33:03;;;;;;;;;7.25;7.25;;;;;4.22;42.48;101864.31;4999064;28;45437;-60
2023/02/27 00:35:29;;;;;;;;;5.50;5.50;;;;;4.21;42.50;101865.16;4998595;28;46435;-60
2023/02/27 00:37:54;;;;;;;;;9.00;7.50;;;;;4.18;42.83;101847.72;4998896;28;45325;-60
2023/02/27 00:40:20;;;;;;;;;5.75;5.50;;;;;4.19;42.52;101856.44;5013481;27;45346;-60
2023/02/27 00:42:47;;;;;;;;;9.00;6.00;;;;;4.18;43.13;101852.06;4998339;27;45221;-60
2023/02/27 00:45:13;;;;;;;;;8.50;6.25;;;;;4.18;42.48;101849.47;4998673;28;46033;-60
2023/02/27 00:47:38;;;;;;;;;5.50;5.50;;;;;4.15;42.81;101852.88;4998028;28;45220;-60
2023/02/27 00:50:04;;;;;;;;;6.00;6.00;;;;;4.12;42.92;101850.16;4998632;28;45238;-60
2023/02/27 00:52:32;;;;;;;;;6.75;6.75;;;;;4.09;42.65;101843.97;4998752;28;45295;-60
2023/02/27 00:54:58;;;;;;;;;7.25;6.50;;;;;4.10;43.42;101854.44;4998108;28;46352;-60
2023/02/27 00:57:23;;;;;;;;;7.00;7.00;;;;;4.09;42.64;101857.88;4998229;28;45332;-60
2023/02/27 00:59:49;;;;;;;;;8.00;6.00;;;;;4.07;42.82;101860.44;4998658;28;45412;-60
2023/02/27 01:02:14;;;;;;;;;6.25;6.25;;;;;4.02;43.19;101855.91;4998358;28;45369;-60
2023/02/27 01:04:39;;;;;;;;;7.25;6.50;;;;;4.04;42.92;101859.47;4998444;28;46287;-60
2023/02/27 01:07:05;;;;;;;;;4.25;4.25;;;;;4.03;42.83;101855.97;4998332;28;45251;-60
2023/02/27 01:09:30;;;;;;;;;6.00;6.00;;;;;4.00;43.19;101853.28;4998109;28;45337;-60
2023/02/27 01:11:56;;;;;;;;;6.00;6.00;;;;;3.98;43.22;101854.94;4998197;28;45315;-60
2023/02/27 01:14:22;;;;;;;;;5.00;3.25;;;;;3.98;43.18;101849.72;4998238;28;45401;-60
2023/02/27 01:16:47;;;;;;;;;4.25;4.25;;;;;3.97;43.05;101855.75;4998085;28;45204;-60
2023/02/27 01:19:12;;;;;;;;;7.50;7.25;;;;;3.95;42.93;101840.94;4998370;28;45176;-60
2023/02/27 01:21:40;;;;;;;;;7.50;6.25;;;;;3.95;42.97;101848.75;4998087;28;45581;-60
2023/02/27 01:24:06;;;;;;;;;6.25;6.25;;;;;3.94;42.76;101844.38;5013019;28;48300;-60
2023/02/27 01:26:32;;;;;;;;;7.00;6.75;;;;;3.92;43.38;101846.06;4998066;28;45614;-60
2023/02/27 01:28:57;;;;;;;;;7.50;5.75;;;;;3.89;42.91;101841.66;4998412;28;45325;-60
2023/02/27 01:31:22;;;;;;;;;4.50;2.00;;;;;3.87;42.84;101845.91;5013193;28;45323;-60
2023/02/27 01:33:47;;;;;;;;;9.75;8.00;;;;;3.87;43.22;101845.91;4997988;28;46092;-60
2023/02/27 01:36:13;;;;;;;;;4.50;4.50;;;;;3.84;42.87;101841.50;4997882;28;45260;-60
2023/02/27 01:38:38;;;;;;;;;6.25;6.00;;;;;3.85;42.95;101843.28;4997877;28;45248;-60
2023/02/27 01:41:06;;;;;;;;;7.50;6.00;;;;;3.83;43.21;101841.47;4996352;27;45555;-60
2023/02/27 01:43:32;;;;;;;;;7.50;6.75;;;;;3.81;43.09;101851.84;4996881;28;45433;-60
2023/02/27 01:45:59;;;;;;;;;9.75;8.75;;;;;3.81;43.51;101856.13;4997773;28;45406;-60
2023/02/27 01:48:29;;;;;;;;;7.25;5.25;;;;;3.77;43.48;101854.28;4997232;28;45562;-60
2023/02/27 01:51:10;;;;;;;;;6.25;6.00;;;;;3.73;43.11;101848.09;4997772;28;45431;-60
2023/02/27 01:53:38;;;;;;;;;7.75;7.00;;;;;3.73;43.30;101854.16;4997557;28;45595;-60
2023/02/27 01:56:10;;;;;;;;;6.50;6.50;;;;;3.73;43.07;101850.69;4997658;28;45394;-60
2023/02/27 01:58:36;;;;;;;;;10.00;8.00;;;;;3.70;43.40;101853.22;4997670;28;45330;-60
2023/02/27 02:01:01;;;;;;;;;7.00;6.00;;;;;3.69;43.28;101856.63;5013117;28;45369;-60
2023/02/27 02:03:41;;;;;;;;;7.50;7.50;;;;;3.65;43.18;101839.16;4997590;28;45343;-60
2023/02/27 02:06:07;;;;;;;;;10.75;8.25;;;;;3.65;43.34;101844.34;4997562;28;45227;-60
2023/02/27 02:08:38;;;;;;;;;7.25;5.50;;;;;3.65;43.66;101833.94;4996964;28;45398;-60
2023/02/27 02:11:05;;;;;;;;;13.00;8.00;;;;;3.63;43.33;101833.03;4997546;28;45403;-60
2023/02/27 02:13:31;;;;;;;;;4.25;4.25;;;;;3.60;43.60;101828.63;4997492;28;45189;-60
2023/02/27 02:16:24;;;;;;;;;7.25;7.00;;;;;3.58;43.18;101838.09;4997505;28;45280;-60
2023/02/27 02:19:08;;;;;;;;;7.00;7.00;;;;;3.57;43.58;101825.91;4987005;28;45217;-60
2023/02/27 02:22:03;;;;;;;;;8.00;8.00;;;;;3.57;43.26;101833.72;4997477;28;45251;-60
2023/02/27 02:24:59;;;;;;;;;4.25;3.00;;;;;3.52;43.42;101820.59;4988711;28;45318;-61
2023/02/27 02:27:52;;;;;;;;;8.00;4.75;;;;;3.53;43.72;101830.13;4997559;28;45349;-60
2023/02/27 02:30:23;;;;;;;;;5.75;5.50;;;;;3.50;43.29;101817.03;4987832;28;45323;-60
2023/02/27 02:33:18;;;;;;;;;6.25;6.25;;;;;3.49;43.81;101822.19;4997238;28;45203;-60
2023/02/27 02:36:35;;;;;;;;;8.50;7.00;;;;;3.46;43.68;101825.59;4997234;28;45603;-60
2023/02/27 02:39:06;;;;;;;;;9.25;6.50;;;;;3.42;43.38;101827.19;4980049;28;45625;-60
2023/02/27 02:42:17;;;;;;;;;7.50;6.50;;;;;3.42;43.79;101826.28;4996980;27;45515;-60
2023/02/27 02:44:54;;;;;;;;;10.25;7.50;;;;;3.39;43.79;101816.69;4980631;28;45547;-60
2023/02/27 02:47:32;;;;;;;;;10.50;5.75;;;;;3.39;43.38;101821.00;4978694;28;47153;-60
2023/02/27 02:50:13;;;;;;;;;9.25;7.50;;;;;3.38;43.07;101822.75;4997203;28;45341;-60
2023/02/27 02:53:09;;;;;;;;;6.00;6.00;;;;;3.38;43.86;101808.84;4995856;28;45321;-60
2023/02/27 02:55:43;;;;;;;;;6.00;6.00;;;;;3.35;43.41;101813.97;4996925;28;45247;-60
2023/02/27 02:58:31;;;;;;;;;5.50;5.50;;;;;3.34;43.91;101807.00;4996900;28;46429;-60
2023/02/27 03:01:10;;;;;;;;;9.50;6.50;;;;;3.32;44.04;101806.06;4985268;28;45299;-60
2023/02/27 03:03:43;;;;;;;;;11.50;9.00;;;;;3.31;43.92;101807.78;4996856;28;45300;-60
2023/02/27 03:06:15;;;;;;;;;8.00;6.25;;;;;3.30;43.96;101805.13;4996979;28;45307;-60
2023/02/27 03:08:51;;;;;;;;;6.75;5.75;;;;;3.21;43.99;101788.41;4996406;28;46179;-60
2023/02/27 03:11:17;;;;;;;;;6.00;3.00;;;;;3.29;43.55;101805.97;4996887;28;45293;-60
2023/02/27 03:13:51;;;;;;;;;4.25;3.25;;;;;3.29;43.57;101804.22;4996840;28;45220;-60
2023/02/27 03:16:19;;;;;;;;;11.25;8.00;;;;;3.28;44.19;101812.84;4996481;28;45165;-59
2023/02/27 03:19:10;;;;;;;;;7.00;5.50;;;;;3.25;43.58;101818.84;4997091;28;46384;-59
2023/02/27 03:21:40;;;;;;;;;6.00;5.25;;;;;3.23;44.20;101820.53;4998336;28;45284;-59
2023/02/27 03:24:11;;;;;;;;;8.00;6.75;;;;;3.23;43.95;101820.53;4999498;28;45397;-60
2023/02/27 03:26:41;;;;;;;;;6.50;6.25;;;;;3.21;44.31;101821.31;4999616;28;45153;-60
2023/02/27 03:29:11;;;;;;;;;6.25;6.25;;;;;3.22;43.71;101826.53;4999461;28;46384;-59
2023/02/27 03:31:45;;;;;;;;;7.25;6.00;;;;;3.22;43.91;101833.44;4999704;28;45314;-59
2023/02/27 03:34:22;;;;;;;;;6.00;5.50;;;;;3.19;43.85;101833.34;4999607;28;45278;-59
2023/02/27 03:36:59;;;;;;;;;11.00;8.00;;;;;3.20;44.12;101832.53;4999548;28;45172;-60
2023/02/27 03:39:43;;;;;;;;;8.00;6.00;;;;;3.20;43.83;101833.38;4998979;28;45341;-60
2023/02/27 03:42:43;;;;;;;;;7.75;6.50;;;;;3.19;44.17;101843.75;4999190;27;45456;-59
2023/02/27 03:45:31;;;;;;;;;5.00;5.00;;;;;3.17;43.82;101829.81;5022446;28;45527;-58
2023/02/27 03:47:57;;;;;;;;;7.00;6.00;;;;;3.13;43.77;101828.81;5001680;27;45533;-59
2023/02/27 03:50:22;;;;;;;;;7.25;6.25;;;;;3.13;43.92;101834.00;4999064;27;46251;-59
2023/02/27 03:52:49;;;;;;;;;6.00;5.50;;;;;3.13;44.38;101836.59;4998225;28;45310;-61
2023/02/27 03:55:20;;;;;;;;;5.75;5.00;;;;;3.12;43.75;101840.06;4998732;28;45234;-59
2023/02/27 03:57:48;;;;;;;;;6.25;6.25;;;;;2.76;44.24;101780.81;4999420;28;45448;-59
2023/02/27 04:00:16;;;;;;;;;6.75;2.00;;;;;3.10;44.16;101839.13;4997905;28;45332;-59
2023/02/27 04:02:44;;;;;;;;;6.75;4.75;;;;;3.12;43.88;101839.16;4999386;28;45329;-59
2023/02/27 04:05:09;;;;;;;;;5.75;4.25;;;;;3.12;44.28;101846.94;4999093;28;45503;-59
2023/02/27 04:08:07;;;;;;;;;5.25;5.25;;;;;3.10;44.15;101849.50;5014173;28;45305;-59
2023/02/27 04:11:16;;;;;;;;;6.50;5.00;;;;;3.12;44.24;101857.34;4998995;28;45354;-59
2023/02/27 04:14:08;;;;;;;;;6.75;6.00;;;;;3.08;44.22;101849.47;4992119;28;45263;-59
2023/02/27 04:17:02;;;;;;;;;6.00;4.50;;;;;3.09;44.24;101856.44;4995649;28;45246;-59
2023/02/27 04:19:39;;;;;;;;;7.50;5.00;;;;;3.05;44.41;101851.94;4998837;28;45535;-59
2023/02/27 04:22:40;;;;;;;;;8.00;6.00;;;;;3.08;44.40;101858.94;4999199;28;46379;-60
2023/02/27 04:25:11;;;;;;;;;7.25;6.00;;;;;3.08;44.18;101857.25;4925939;28;45385;-60
2023/02/27 04:27:51;;;;;;;;;5.50;4.50;;;;;3.07;44.06;101855.47;4987228;28;45392;-60
2023/02/27 04:30:28;;;;;;;;;3.75;3.75;;;;;3.06;44.26;101858.03;5013775;28;45474;-60
2023/02/27 04:33:10;;;;;;;;;5.75;5.75;;;;;3.04;44.37;101857.94;4998713;28;46328;-60
2023/02/27 04:36:29;;;;;;;;;5.75;5.75;;;;;3.04;44.30;101862.28;4998864;28;45418;-60
2023/02/27 04:39:20;;;;;;;;;5.00;5.00;;;;;2.95;44.41;101854.19;4937830;28;45452;-59
2023/02/27 04:41:59;;;;;;;;;6.00;5.00;;;;;3.01;44.20;101868.25;4947488;28;45300;-60
2023/02/27 04:44:27;;;;;;;;;7.00;6.00;;;;;2.99;44.34;101872.50;4989380;28;46782;-60
2023/02/27 04:46:56;;;;;;;;;6.00;6.00;;;;;2.98;44.54;101873.34;5013879;28;45287;-60
2023/02/27 04:49:26;;;;;;;;;4.50;3.75;;;;;2.99;44.31;101879.41;4998158;27;45252;-63
2023/02/27 04:51:59;;;;;;;;;7.50;4.50;;;;;2.96;44.01;101864.59;5011949;28;45334;-60
2023/02/27 04:54:45;;;;;;;;;7.00;6.00;;;;;2.99;44.16;101875.09;5018028;28;46144;-60
2023/02/27 04:57:18;;;;;;;;;6.25;5.00;;;;;2.99;44.49;101871.63;5018093;28;45455;-60
2023/02/27 04:59:47;;;;;;;;;7.25;6.00;;;;;2.98;44.47;101877.63;5018438;28;45301;-60
2023/02/27 05:02:23;;;;;;;;;7.00;6.00;;;;;2.98;44.40;101875.03;5018070;28;45575;-60
2023/02/27 05:04:54;;;;;;;;;5.00;5.00;;;;;2.96;44.85;101876.72;5018005;28;46067;-60
2023/02/27 05:07:24;;;;;;;;;5.50;5.00;;;;;2.98;44.66;101877.63;5016970;28;45367;-60
2023/02/27 05:09:58;;;;;;;;;6.50;6.25;;;;;2.97;44.52;101878.47;5017802;28;45444;-60
2023/02/27 05:12:45;;;;;;;;;10.00;6.00;;;;;2.97;44.29;101887.16;5018291;28;45255;-60
2023/02/27 05:15:17;;;;;;;;;8.00;6.00;;;;;2.96;44.21;101895.78;5008580;28;45656;-60
2023/02/27 05:18:10;;;;;;;;;10.50;7.00;;;;;2.96;44.26;101890.59;4998347;28;45256;-60
2023/02/27 05:21:07;;;;;;;;;7.00;6.00;;;;;2.95;44.58;101898.31;4995979;28;45529;-60
2023/02/27 05:23:47;;;;;;;;;5.25;3.00;;;;;2.93;44.62;101896.56;4998089;28;45575;-60
2023/02/27 05:26:21;;;;;;;;;6.25;5.00;;;;;2.92;44.58;101889.59;4999865;28;45250;-59
2023/02/27 05:28:54;;;;;;;;;5.75;5.75;;;;;2.93;44.37;101893.94;5015907;28;45261;-60
2023/02/27 05:31:28;;;;;;;;;10.00;6.00;;;;;2.94;44.73;101905.22;5017892;28;45366;-60
2023/02/27 05:34:15;;;;;;;;;10.75;7.75;;;;;2.93;44.48;101893.94;5017826;28;45313;-60
2023/02/27 05:37:04;;;;;;;;;8.00;7.00;;;;;2.91;44.47;101892.13;5017759;28;45260;-60
2023/02/27 05:39:32;;;;;;;;;6.25;6.00;;;;;2.91;44.41;101895.59;5017356;28;45233;-60
2023/02/27 05:42:07;;;;;;;;;9.00;7.50;;;;;2.90;44.46;101901.63;5002166;27;45318;-60
2023/02/27 05:44:37;;;;;;;;;7.25;7.25;;;;;2.89;44.40;101904.16;4998020;28;45352;-60
2023/02/27 05:47:31;;;;;;;;;6.00;5.75;;;;;2.90;44.92;101898.16;4997751;28;45269;-60
2023/02/27 05:50:05;;;;;;;;;5.25;5.00;;;;;2.91;44.34;101900.78;4989320;28;45323;-60
2023/02/27 05:52:33;;;;;;;;;7.50;7.00;;;;;2.89;44.53;101901.56;4997888;28;45457;-60
2023/02/27 05:55:12;;;;;;;;;8.50;7.25;;;;;2.91;44.94;101910.31;4997480;28;45445;-60
2023/02/27 05:57:46;;;;;;;;;6.50;5.50;;;;;2.90;44.76;101914.59;4985473;28;45481;-60
2023/02/27 06:00:28;;;;;;;;;11.25;10.25;;;;;2.85;44.72;101905.75;5012870;28;45318;-60
2023/02/27 06:02:54;;;;;;;;;6.75;6.50;;;;;2.88;44.63;101924.06;4998071;28;45454;-60
2023/02/27 06:05:19;;;;;;;;;7.50;6.00;;;;;2.86;44.61;101915.31;4997688;28;45177;-60
2023/02/27 06:07:45;;;;;;;;;7.50;7.00;;;;;2.81;44.56;101898.69;4997416;28;45537;-59
2023/02/27 06:10:14;;;;;;;;;7.00;7.00;;;;;2.87;44.55;101914.50;4997439;28;45273;-59
2023/02/27 06:12:40;;;;;;;;;7.75;6.50;;;;;2.85;44.69;101912.69;4997819;28;45368;-59
2023/02/27 06:15:06;;;;;;;;;8.00;7.25;;;;;2.86;45.10;101917.06;4997486;28;45316;-59
2023/02/27 06:17:31;;;;;;;;;13.00;10.00;;;;;2.87;45.09;101929.22;4997605;28;45215;-61
2023/02/27 06:19:57;;;;;;;;;7.50;6.00;;;;;2.86;45.12;101930.91;4997423;28;45363;-59
2023/02/27 06:22:22;;;;;;;;;9.00;9.00;;;;;2.76;44.93;101908.03;4997704;28;45265;-59
2023/02/27 06:24:47;;;;;;;;;10.00;8.25;;;;;2.85;44.71;101923.94;4996966;28;45205;-59
2023/02/27 06:27:13;;;;;;;;;10.00;6.00;;;;;2.84;45.08;101924.75;4997542;28;45301;-59
2023/02/27 06:29:38;;;;;;;;;12.50;7.50;;;;;2.84;45.07;101926.50;4997252;28;45406;-59
2023/02/27 06:32:03;;;;;;;;;5.50;5.50;;;;;2.85;45.27;101936.06;4997599;28;45295;-59
2023/02/27 06:34:29;;;;;;;;;8.25;7.25;;;;;2.83;44.73;101935.09;4997156;28;45555;-60
2023/02/27 06:36:54;;;;;;;;;6.00;5.75;;;;;2.83;45.21;101932.50;4997230;28;46088;-59
2023/02/27 06:39:19;;;;;;;;;8.00;5.25;;;;;2.72;45.03;101924.34;4996714;28;45433;-60
2023/02/27 06:41:45;;;;;;;;;7.00;7.00;;;;;2.79;44.80;101939.28;4997059;27;45304;-60
2023/02/27 06:44:10;;;;;;;;;8.00;6.25;;;;;2.78;44.88;101939.25;4997149;28;45378;-60
2023/02/27 06:46:36;;;;;;;;;8.75;6.75;;;;;2.76;45.24;101950.44;4996844;28;45409;-60
2023/02/27 06:49:01;;;;;;;;;10.00;8.00;;;;;2.76;45.19;101957.38;4996799;28;45460;-60
2023/02/27 06:51:26;;;;;;;;;11.00;8.25;;;;;2.74;45.45;101959.91;4997309;28;45302;-60
2023/02/27 06:53:52;;;;;;;;;10.75;10.00;;;;;2.75;45.23;101955.59;4998550;28;45321;-59
2023/02/27 06:56:17;;;;;;;;;8.25;6.50;;;;;2.75;45.42;101955.59;5000096;28;45335;-59
2023/02/27 06:58:43;;;;;;;;;7.25;7.25;;;;;2.74;45.02;101959.00;4999718;28;45251;-60
2023/02/27 07:01:08;;;;;;;;;11.00;7.50;;;;;2.73;45.23;101957.22;5000323;28;45324;-60
2023/02/27 07:03:34;;;;;;;;;8.25;8.25;;;;;2.71;45.39;101964.09;4999820;28;45279;-60
2023/02/27 07:06:01;;;;;;;;;10.00;8.00;;;;;2.74;45.14;101956.41;4999977;28;45418;-60
2023/02/27 07:08:26;;;;;;;;;11.00;8.25;;;;;2.73;45.04;101962.41;4999539;28;45333;-60
2023/02/27 07:10:52;;;;;;;;;10.50;9.25;;;;;2.73;45.03;101967.63;4999764;28;45422;-60
2023/02/27 07:13:18;;;;;;;;;8.50;7.00;;;;;2.69;45.15;101958.84;4999889;28;45246;-60
2023/02/27 07:15:43;;;;;;;;;5.75;5.75;;;;;2.70;45.01;101970.97;4999676;27;45346;-60
2023/02/27 07:18:09;;;;;;;;;6.75;6.75;;;;;2.69;45.21;101965.75;4998336;28;45344;-60
2023/02/27 07:20:35;;;;;;;;;8.25;8.25;;;;;2.69;45.49;101966.66;4999987;28;45660;-60
2023/02/27 07:23:00;;;;;;;;;7.00;5.75;;;;;2.70;45.20;101975.31;4999470;28;45358;-59
2023/02/27 07:25:26;;;;;;;;;6.50;5.75;;;;;2.70;44.89;101975.31;4999545;28;45476;-60
2023/02/27 07:27:51;;;;;;;;;7.00;7.00;;;;;2.72;45.16;101969.34;4998296;28;45383;-60
2023/02/27 07:30:17;;;;;;;;;10.25;8.75;;;;;2.71;45.53;101972.75;5014893;28;45258;-60
2023/02/27 07:32:43;;;;;;;;;5.00;3.00;;;;;2.71;45.51;101966.69;4999693;28;45644;-60
2023/02/27 07:35:08;;;;;;;;;10.25;8.50;;;;;2.66;45.48;101965.63;4998327;28;45370;-60
2023/02/27 07:37:34;;;;;;;;;8.50;7.00;;;;;2.70;45.33;101978.78;4999405;28;45379;-60
2023/02/27 07:39:59;;;;;;;;;10.00;5.75;;;;;2.70;45.67;101967.50;4998620;28;45279;-60
2023/02/27 07:42:25;;;;;;;;;4.25;4.25;;;;;2.65;45.83;101975.13;4999020;27;45192;-60
2023/02/27 07:44:50;;;;;;;;;10.50;7.50;;;;;2.73;45.19;101985.78;4999544;28;45231;-60
2023/02/27 07:47:16;;;;;;;;;10.25;8.25;;;;;2.72;45.36;101977.13;4998933;28;45212;-60
2023/02/27 07:49:42;;;;;;;;;9.25;7.75;;;;;2.74;45.27;101965.09;4999585;28;45292;-60
2023/02/27 07:52:07;;;;;;;;;7.50;7.50;;;;;2.73;45.47;101978.00;4999346;28;45227;-60
2023/02/27 07:54:33;;;;;;;;;8.50;8.50;;;;;2.75;45.45;101981.56;4998937;28;46220;-60
2023/02/27 07:56:58;;;;;;;;;9.25;7.50;;;;;2.73;45.89;101981.50;4997871;28;45416;-60
2023/02/27 07:59:24;;;;;;;;;10.75;10.00;;;;;2.78;45.44;101989.47;4999493;28;45323;-60
2023/02/27 08:01:49;;;;;;;;;9.50;7.00;;;;;2.78;45.35;101989.47;5014211;28;45511;-60
2023/02/27 08:04:14;;;;;;;;;9.25;7.00;;;;;2.80;45.98;101990.41;5013187;28;45515;-60
2023/02/27 08:06:40;;;;;;;;;7.25;7.25;;;;;2.81;45.42;101984.38;5014203;28;45561;-60
2023/02/27 08:09:05;;;;;;;;;10.75;10.25;;;;;2.81;45.59;101986.97;4997560;28;45401;-61
2023/02/27 08:11:31;;;;;;;;;6.50;6.00;;;;;2.84;45.90;101981.88;5014154;28;45952;-60
2023/02/27 08:13:56;;;;;;;;;9.00;7.75;;;;;2.87;45.84;101992.41;4999130;28;46315;-60
2023/02/27 08:16:21;;;;;;;;;11.00;11.00;;;;;2.90;45.65;101983.84;4998666;28;45405;-61
2023/02/27 08:18:47;;;;;;;;;9.25;5.50;;;;;2.88;45.50;101990.69;4999278;28;45341;-61
2023/02/27 08:21:12;;;;;;;;;9.25;8.00;;;;;2.93;46.02;101992.63;4998946;28;45370;-60
2023/02/27 08:23:38;;;;;;;;;15.75;11.00;;;;;2.97;45.53;101995.34;5013891;28;45492;-60
2023/02/27 08:26:03;;;;;;;;;9.50;9.00;;;;;2.98;45.58;101994.50;4998740;28;45476;-61
2023/02/27 08:28:29;;;;;;;;;6.75;5.75;;;;;3.03;45.95;101996.47;4997666;28;45484;-60
2023/02/27 08:30:54;;;;;;;;;8.50;8.50;;;;;3.05;45.63;101991.31;4997409;28;45356;-61
2023/02/27 08:33:21;;;;;;;;;24.75;20.00;;;;;3.13;45.44;101991.59;4997533;28;47090;-61
2023/02/27 08:35:46;;;;;;;;;15.25;14.25;;;;;3.16;45.52;102000.38;4997383;28;45291;-61
2023/02/27 08:38:11;;;;;;;;;10.50;8.00;;;;;3.21;45.61;102004.03;4997341;28;45327;-60
2023/02/27 08:40:37;;;;;;;;;10.50;8.75;;;;;3.23;45.35;102005.00;4998015;27;45165;-60
2023/02/27 08:43:02;;;;;;;;;10.75;10.25;;;;;3.29;45.68;102006.03;5030136;28;45338;-60
2023/02/27 08:45:28;;;;;;;;;6.50;4.75;;;;;3.27;45.58;102006.00;4998747;27;45286;-60
2023/02/27 08:47:53;;;;;;;;;11.25;11.25;;;;;3.40;46.08;102013.38;4998302;28;45286;-60
2023/02/27 08:50:18;;;;;;;;;10.75;7.75;;;;;3.45;45.91;102007.44;4998497;27;45173;-60
2023/02/27 08:52:44;;;;;;;;;7.50;7.00;;;;;3.51;45.90;102016.38;4998394;28;45237;-61
2023/02/27 08:55:09;;;;;;;;;9.50;6.75;;;;;3.57;45.75;102007.88;4998314;28;45294;-60
2023/02/27 08:57:35;;;;;;;;;11.25;7.50;;;;;3.61;45.44;102014.97;4998723;28;45349;-61
2023/02/27 09:00:01;;;;;;;;;7.75;4.25;;;;;3.66;45.79;102013.41;4998521;28;45459;-60
2023/02/27 09:02:26;;;;;;;;;8.00;6.25;;;;;3.78;45.51;102018.13;4998423;28;45317;-60
2023/02/27 09:04:52;;;;;;;;;8.00;8.00;;;;;3.84;45.97;102026.16;5013648;28;45314;-60
2023/02/27 09:07:19;;;;;;;;;10.50;6.00;;;;;3.94;46.05;102029.06;4997377;28;45318;-60
2023/02/27 09:09:44;;;;;;;;;8.75;7.50;;;;;4.02;45.89;102025.00;4997989;28;45322;-60
2023/02/27 09:12:10;;;;;;;;;6.00;5.00;;;;;4.10;45.95;102023.56;4998373;28;46152;-61
2023/02/27 09:14:35;;;;;;;;;7.00;5.00;;;;;4.22;45.81;102030.88;4998284;28;46394;-62
2023/02/27 09:17:01;;;;;;;;;9.50;7.00;;;;;4.30;45.80;102016.41;4997028;28;45522;-61
2023/02/27 09:19:26;;;;;;;;;7.75;7.75;;;;;4.41;45.93;102014.13;4998266;28;45254;-60
2023/02/27 09:21:52;;;;;;;;;7.75;7.75;;;;;4.50;45.84;102016.13;4998304;28;45522;-61
2023/02/27 09:24:17;;;;;;;;;7.75;7.25;;;;;4.59;45.71;102007.72;5012955;28;45247;-60
2023/02/27 09:26:42;;;;;;;;;6.50;6.50;;;;;4.70;45.76;102012.44;4998426;28;45184;-61
2023/02/27 09:29:08;;;;;;;;;7.50;6.75;;;;;4.80;45.79;102010.97;4998132;28;45448;-60
2023/02/27 09:31:33;;;;;;;;;4.25;4.25;;;;;4.98;45.79;102025.38;5013426;28;45334;-60
2023/02/27 09:34:00;;;;;;;;;6.00;6.00;;;;;5.09;45.62;102020.50;4996770;28;45290;-61
2023/02/27 09:36:26;;;;;;;;;7.75;7.75;;;;;5.24;45.58;102012.22;4998298;28;45456;-61
2023/02/27 09:38:52;;;;;;;;;9.00;7.50;;;;;5.41;45.51;102018.81;4997512;28;45266;-61
2023/02/27 09:41:50;;;;;;;;;7.25;4.25;;;;;5.63;45.79;102021.97;4998951;27;45340;-61
2023/02/27 09:44:36;;;;;;;;;6.25;6.25;;;;;5.82;45.95;102024.25;4959641;28;45273;-60
2023/02/27 09:47:04;;;;;;;;;6.50;4.75;;;;;5.96;45.79;102013.25;4997905;28;45321;-60
2023/02/27 09:49:40;;;;;;;;;5.00;4.00;;;;;6.19;45.89;102024.31;4997287;27;45515;-60
2023/02/27 09:52:06;;;;;;;;;4.75;3.00;;;;;6.35;46.18;102009.88;4996375;28;46095;-60
2023/02/27 09:54:32;;;;;;;;;3.00;3.00;;;;;6.55;45.95;102018.19;5012708;28;45325;-60
2023/02/27 09:57:02;;;;;;;;;5.25;5.00;;;;;6.76;45.99;102014.31;4997887;28;45263;-61
2023/02/27 09:59:34;;;;;;;;;4.25;4.25;;;;;6.93;45.79;102023.38;4997842;28;45462;-61
2023/02/27 10:02:33;;;;;;;;;5.50;4.00;;;;;7.14;45.95;102020.34;4997608;28;45321;-61
2023/02/27 10:05:24;;;;;;;;;6.50;6.25;;;;;7.35;45.70;102029.47;4997638;28;45268;-61
2023/02/27 10:08:09;;;;;;;;;12.75;9.75;;;;;7.56;45.94;102020.25;4997637;28;45405;-61
2023/02/27 10:10:59;;;;;;;;;7.00;5.25;;;;;7.79;45.87;102018.06;4984983;27;45412;-61
2023/02/27 10:13:46;;;;;;;;;3.75;3.75;;;;;8.03;45.83;102024.59;4996112;28;46278;-62
2023/02/27 10:16:16;;;;;;;;;5.00;4.00;;;;;8.24;45.78;102017.06;4997369;28;45315;-61
2023/02/27 10:19:05;;;;;;;;;7.50;5.25;;;;;8.51;45.77;102017.50;4997691;28;45358;-61
2023/02/27 10:21:36;;;;;;;;;4.50;4.50;;;;;8.73;45.67;102002.97;4997576;28;45623;-61
2023/02/27 10:24:16;;;;;;;;;5.50;4.50;;;;;8.95;45.69;102014.63;4997131;28;45386;-62
2023/02/27 10:26:44;;;;;;;;;4.00;4.00;;;;;9.16;45.31;102013.16;4984878;28;45394;-61
2023/02/27 10:29:21;;;;;;;;;5.00;5.00;;;;;9.35;45.65;102009.84;4996880;28;45425;-61
2023/02/27 10:31:52;;;;;;;;;5.25;4.50;;;;;9.56;45.49;102021.47;4997374;28;45306;-61
2023/02/27 10:34:20;;;;;;;;;10.75;8.75;;;;;9.73;45.35;102019.84;4997117;28;45727;-61
2023/02/27 10:36:46;;;;;;;;;8.25;8.25;;;;;9.88;45.54;102015.63;4997210;28;45299;-61
2023/02/27 10:39:16;;;;;;;;;3.75;3.75;;;;;10.01;45.08;102012.25;5000231;28;45420;-61
2023/02/27 10:41:44;;;;;;;;;5.25;4.25;;;;;10.16;45.18;102010.59;5007747;27;45283;-61
2023/02/27 10:44:14;;;;;;;;;5.25;5.00;;;;;10.28;44.96;102008.06;5013234;28;46267;-61
2023/02/27 10:46:40;;;;;;;;;5.00;5.00;;;;;10.39;44.65;102016.94;5016846;28;45309;-61
2023/02/27 10:49:14;;;;;;;;;4.00;4.00;;;;;10.49;44.88;102020.53;4999323;28;45296;-61
2023/02/27 10:51:40;;;;;;;;;4.00;4.00;;;;;10.56;44.77;102014.44;5016880;28;45362;-61
2023/02/27 10:54:18;;;;;;;;;4.00;4.00;;;;;10.63;44.69;102020.59;5016345;28;46754;-61
2023/02/27 10:56:49;;;;;;;;;5.00;5.00;;;;;10.68;44.36;102020.66;5015169;28;45391;-61
2023/02/27 10:59:18;;;;;;;;;7.00;5.75;;;;;10.73;44.28;102021.56;5017129;28;45292;-61
2023/02/27 11:01:52;;;;;;;;;3.50;3.50;;;;;10.72;44.22;102010.13;5016762;28;45423;-62
2023/02/27 11:04:37;;;;;;;;;6.00;4.25;;;;;10.78;44.06;102011.03;5016764;28;46082;-61
2023/02/27 11:07:08;;;;;;;;;8.25;4.00;;;;;10.81;44.12;102011.06;5016520;28;45359;-61
2023/02/27 11:09:35;;;;;;;;;7.00;6.00;;;;;10.84;43.80;102004.06;5016419;28;45244;-61
2023/02/27 11:12:35;;;;;;;;;2.75;2.75;;;;;10.87;43.70;102000.59;5016552;28;45415;-63
2023/02/27 11:15:22;;;;;;;;;3.00;3.00;;;;;10.97;43.79;101993.59;4986387;28;46351;-61
2023/02/27 11:17:48;;;;;;;;;4.00;4.00;;;;;11.03;43.61;101994.50;5008081;28;45475;-61
2023/02/27 11:20:42;;;;;;;;;5.00;4.25;;;;;11.12;43.53;101995.41;5016494;28;45329;-61
2023/02/27 11:23:16;;;;;;;;;6.50;5.00;;;;;11.17;43.63;101991.94;5030129;28;45508;-61
2023/02/27 11:25:43;;;;;;;;;5.75;5.75;;;;;11.27;43.42;101994.56;5015513;28;45409;-61
2023/02/27 11:28:19;;;;;;;;;2.50;2.50;;;;;11.32;43.52;101993.72;5016298;28;45237;-61
2023/02/27 11:31:02;;;;;;;;;7.00;5.00;;;;;11.37;43.39;101977.94;5016456;28;45238;-61
2023/02/27 11:33:30;;;;;;;;;4.00;4.00;;;;;11.46;43.41;101991.13;5016127;28;45455;-61
2023/02/27 11:35:57;;;;;;;;;4.75;4.75;;;;;11.52;43.38;101982.34;5015941;28;45443;-61
2023/02/27 11:38:25;;;;;;;;;5.00;5.00;;;;;11.57;43.25;101977.09;5015821;28;45332;-61
2023/02/27 11:40:54;;;;;;;;;5.25;5.25;;;;;11.63;43.25;101967.44;5015653;27;45380;-61
2023/02/27 11:43:22;;;;;;;;;5.50;5.50;;;;;11.68;43.07;101975.34;5009032;28;45369;-61
2023/02/27 11:45:55;;;;;;;;;4.00;3.00;;;;;11.73;42.87;101978.88;5019066;28;46049;-61
2023/02/27 11:48:25;;;;;;;;;4.00;3.00;;;;;11.78;42.87;101986.78;5017735;28;45281;-61
2023/02/27 11:51:09;;;;;;;;;3.00;3.00;;;;;11.83;42.79;101982.38;5019225;28;45180;-61
2023/02/27 11:54:02;;;;;;;;;3.50;3.50;;;;;11.91;42.97;101977.13;5018966;28;45313;-60